»·PEaware :: GSA821 KDEN-KSLC

GSA821 :: KDEN-KSLC

FLIGHT INFORMATION

Flight Status: Arrived
Operator:
Global Sim Alliance
More flights by this operator :: More flights under this callsign
Pilot: Andre N. (13929)
Aircraft: BOEING 757-200
(B752)
More flights by this aircraft type
Origin: KDEN Denver Intl
United States
Destination: KSLC Salt Lake City Intl
United States
More flights between these airports :: More routes between these airports
Route: +HELPR LEEHY5
File this flight plan on PilotEdge
Remarks:
Altitude:
(Current/Filed)
36,000ft
Speed:
(Current/Filed)
450kts
Departed: 09-May-18 11:24 AM
Arrived: 09-May-18 12:17 PM
Distance/Time
Traveled:
339nm/0:52
Distance/Time
To Go:
Arrived

Flight Plot

Page will automatically refresh every two minutes.

Flight plan parsing failed; only flown route is shown


Map Options




Map Legend


Flown Route
Filed Route
Departure Airport
Arrival Airport
Navaid (VOR, NDB)
Fix

Horizontal Profiles

Position Reports

Time Latitude Longitude Heading Altitude Ground
Speed
09-May-18 11:23 39.086871 -106.992406 235 36238ft 391kts
09-May-18 11:24 39.022377 -107.104196 235 36238ft 391kts
09-May-18 11:25 38.954039 -107.212170 232 36237ft 392kts
09-May-18 11:26 38.885199 -107.315145 232 36235ft 390kts
09-May-18 11:27 38.853493 -107.370972 246 36247ft 386kts
09-May-18 11:28 38.797488 -107.487932 237 36373ft 389kts
09-May-18 11:29 38.733647 -107.599550 236 36236ft 389kts
09-May-18 11:30 38.676452 -107.697144 235 36108ft 389kts
09-May-18 11:31 38.612235 -107.806084 235 36103ft 389kts
09-May-18 11:32 38.572775 -107.929095 271 36141ft 382kts
09-May-18 11:33 38.599804 -108.057958 293 36129ft 381kts
09-May-18 11:34 38.670171 -108.156299 313 36106ft 384kts
09-May-18 11:35 38.729395 -108.256494 301 36101ft 382kts
09-May-18 11:36 38.784386 -108.371472 300 36100ft 381kts
09-May-18 11:37 38.838355 -108.488361 300 36099ft 381kts
09-May-18 11:38 38.891908 -108.605241 299 36099ft 382kts
09-May-18 11:39 38.939371 -108.709231 299 36103ft 382kts
09-May-18 11:40 38.992749 -108.826597 299 36102ft 381kts
09-May-18 11:41 39.045942 -108.943996 299 36102ft 381kts
09-May-18 11:42 39.097498 -109.058201 299 36101ft 382kts
09-May-18 11:43 39.144669 -109.163052 299 36102ft 382kts
09-May-18 11:44 39.197597 -109.281126 299 36101ft 382kts
09-May-18 11:45 39.250455 -109.399484 299 36101ft 382kts
09-May-18 11:46 39.303292 -109.518241 299 35677ft 381kts
09-May-18 11:47 39.355105 -109.635136 299 34661ft 374kts
09-May-18 11:48 39.391402 -109.717293 298 33955ft 370kts
09-May-18 11:49 39.438321 -109.823804 298 32872ft 365kts
09-May-18 11:50 39.487966 -109.936908 298 31576ft 360kts
09-May-18 11:51 39.536320 -110.047464 298 30082ft 352kts
09-May-18 11:52 39.583746 -110.156284 298 28580ft 344kts
09-May-18 11:53 39.630182 -110.263201 298 27075ft 337kts
09-May-18 11:54 39.675693 -110.368342 298 25692ft 328kts
09-May-18 11:55 39.720190 -110.471510 298 24902ft 328kts
09-May-18 11:56 39.765174 -110.576191 298 24012ft 361kts
09-May-18 11:57 39.813946 -110.689817 297 23061ft 374kts
09-May-18 11:58 39.863521 -110.805346 297 22080ft 369kts
09-May-18 11:59 39.913151 -110.921088 297 21083ft 364kts
09-May-18 12:00 39.957450 -111.037745 288 20096ft 358kts
09-May-18 12:01 39.992399 -111.158194 290 19275ft 354kts
09-May-18 12:02 40.028887 -111.276362 295 18290ft 350kts
09-May-18 12:03 40.070430 -111.387023 294 17410ft 346kts
09-May-18 12:04 40.110446 -111.494505 294 16501ft 340kts
09-May-18 12:05 40.150738 -111.603207 294 16010ft 338kts
09-May-18 12:06 40.196383 -111.704761 312 15209ft 316kts
09-May-18 12:07 40.255656 -111.785235 312 13958ft 303kts
09-May-18 12:08 40.312936 -111.853713 320 12528ft 256kts
09-May-18 12:09 40.369799 -111.911520 322 11247ft 261kts
09-May-18 12:10 40.436089 -111.933570 354 10985ft 248kts
09-May-18 12:11 40.505797 -111.942015 354 9727ft 258kts
09-May-18 12:12 40.574050 -111.949948 354 8244ft 225kts
09-May-18 12:13 40.632454 -111.956673 354 6908ft 200kts
09-May-18 12:14 40.681122 -111.962288 354 6034ft 148kts
09-May-18 12:15 40.721762 -111.966983 354 5273ft 150kts
09-May-18 12:16 40.762169 -111.971722 354 4567ft 146kts
09-May-18 12:17 40.796339 -111.975687 348 4238ft 22kts
09-May-18 12:18 40.795525 -111.977734 175 4238ft 18kts
09-May-18 12:19 40.790250 -111.977118 175 4238ft 18kts
09-May-18 12:20 40.785934 -111.977399 228 4238ft 10kts
09-May-18 12:21 40.785573 -111.977952 229 4238ft 0kts
09-May-18 12:22 40.785573 -111.977952 229 4238ft 0kts
09-May-18 12:23 40.785573 -111.977952 229 4238ft 0kts

Navigation Log

Ident Type
Flight plan parsing failed, navigation log unavailable